首页
METAR-TAF:

METAR-TAF

机场 :

奥尔良, 法国

纬度: 47-59N, 经度: 001-45E, 海拔: 126米

当前天气观测

该预报发布于25分钟前的08:30 UTC
风速11节,风向东北
温度 26°C
湿度 74%
气压 1021 hPa
能見度: 9000

METAR: LFOJ 270830Z AUTO 04011KT 9000 NSC 26/21 Q1021 NOSIG

时间: 10:55 (08:55 UTC)

预报

该预报发布于55分钟前的08:00 UTC
预报有效从27日的 09点(UTC)到 28日的 09点(UTC)
风速13节,风向东北
能見度: 9000

TAF: LFOJ 270800Z 2709/2809 05013KT 9000 NSC

超过4000个机场的气象观测和天气预报(METAR&TAF报告)。

可查询的气象台以黄色和红色小点在地图上表示。

将鼠标移到小点上方,可查看气象台名称。

然后点击查看天气观测和预报。

如需切换地图:点击带黑十字的绿色按钮放大地图;点击带横线的绿色按钮缩小地图;或者点击绿色箭头查看邻近地区的地图。


METAR-TAF: